Time;durP1;ratioP1;P1;durP2;ratioP2;P2;SDS_P1;SDS_P2;PMS_P1;PMS_P2;Temp;Humidity;BMP_temperature;BMP_pressure;BME280_temperature;BME280_humidity;BME280_pressure;Samples;Min_cycle;Max_cycle;Signal;HPM_P1;HPM_P2
2021/09/08 00:02:39;;;;;;;13.88;9.88;;;15.10;99.90;;;;;;6173643;28;20031;-78
2021/09/08 00:05:39;;;;;;;11.75;9.57;;;15.20;99.90;;;;;;6173191;28;20029;-78
2021/09/08 00:08:40;;;;;;;13.00;10.18;;;15.10;99.90;;;;;;6159331;28;20027;-77
2021/09/08 00:11:40;;;;;;;11.45;9.77;;;15.30;99.90;;;;;;6150449;28;20031;-78
2021/09/08 00:14:41;;;;;;;13.90;10.18;;;15.00;99.90;;;;;;6161686;28;20414;-78
2021/09/08 00:17:42;;;;;;;13.38;10.45;;;;;;;;;;6150386;28;20047;-78
2021/09/08 00:20:43;;;;;;;12.80;10.30;;;;;;;;;;6161053;28;20030;-78
2021/09/08 00:23:44;;;;;;;11.88;10.18;;;;;;;;;;6166636;28;20075;-78
2021/09/08 00:26:45;;;;;;;15.52;10.30;;;;;;;;;;6173222;28;20025;-78
2021/09/08 00:29:46;;;;;;;13.25;10.10;;;;;;;;;;6167845;28;20085;-78
2021/09/08 00:32:47;;;;;;;11.50;10.00;;;;;;;;;;6153403;28;20122;-78
2021/09/08 00:35:48;;;;;;;13.52;11.00;;;14.80;99.90;;;;;;6149783;28;20070;-77
2021/09/08 00:38:49;;;;;;;16.13;10.27;;;14.70;99.90;;;;;;6193687;28;20058;-78
2021/09/08 00:41:50;;;;;;;11.48;10.27;;;;;;;;;;6198449;28;20027;-78
2021/09/08 00:44:50;;;;;;;14.30;10.40;;;14.80;99.90;;;;;;6198639;28;20027;-78
2021/09/08 00:47:51;;;;;;;11.45;10.25;;;14.80;99.90;;;;;;6198251;28;20039;-78
2021/09/08 00:50:52;;;;;;;11.48;9.05;;;14.70;99.90;;;;;;6180832;28;20043;-78
2021/09/08 00:53:52;;;;;;;13.10;10.50;;;14.70;99.90;;;;;;6164619;28;20034;-78
2021/09/08 00:56:53;;;;;;;13.43;10.20;;;14.80;99.90;;;;;;6164620;28;20030;-78
2021/09/08 00:59:54;;;;;;;12.18;10.32;;;14.90;99.90;;;;;;6197944;28;20038;-78
2021/09/08 01:02:55;;;;;;;11.13;9.43;;;14.90;99.90;;;;;;6180424;28;20053;-78
2021/09/08 01:05:56;;;;;;;12.38;10.20;;;15.00;99.90;;;;;;6198083;28;20030;-78
2021/09/08 01:08:57;;;;;;;12.25;9.93;;;14.80;99.90;;;;;;6164163;28;20196;-77
2021/09/08 01:11:58;;;;;;;12.45;9.55;;;14.70;99.90;;;;;;6179995;28;20034;-78
2021/09/08 01:14:58;;;;;;;11.02;9.10;;;15.00;99.90;;;;;;6163921;28;20030;-78
2021/09/08 01:17:59;;;;;;;12.75;9.60;;;14.90;99.90;;;;;;6198372;28;20081;-78
2021/09/08 01:21:00;;;;;;;11.55;9.30;;;14.90;99.90;;;;;;6197747;28;20049;-78
2021/09/08 01:24:06;;;;;;;11.93;9.43;;;15.10;99.90;;;;;;6180178;28;20346;-77
2021/09/08 01:27:07;;;;;;;13.77;10.40;;;15.00;99.90;;;;;;6163832;28;20033;-78
2021/09/08 01:30:08;;;;;;;12.10;10.27;;;14.90;99.90;;;;;;6163428;28;20034;-78
2021/09/08 01:33:09;;;;;;;15.30;10.07;;;15.00;99.90;;;;;;6179749;28;20097;-78
2021/09/08 01:36:10;;;;;;;12.23;10.07;;;;;;;;;;6163498;28;20077;-78
2021/09/08 01:39:16;;;;;;;12.50;9.77;;;14.70;99.90;;;;;;6179978;28;20726;-78
2021/09/08 01:42:16;;;;;;;12.57;10.05;;;15.10;99.90;;;;;;6197427;28;20030;-78
2021/09/08 01:45:17;;;;;;;13.63;10.45;;;14.80;99.90;;;;;;6179278;28;20108;-77
2021/09/08 01:48:18;;;;;;;15.02;9.95;;;14.70;99.90;;;;;;6197084;28;20030;-78
2021/09/08 01:51:18;;;;;;;13.50;10.40;;;14.70;99.90;;;;;;6179510;28;20041;-78
2021/09/08 01:54:20;;;;;;;15.90;10.98;;;14.80;99.90;;;;;;6179404;28;20376;-77
2021/09/08 01:57:20;;;;;;;12.63;10.00;;;14.80;99.90;;;;;;6196905;28;20110;-79
2021/09/08 02:00:21;;;;;;;12.23;9.65;;;14.50;99.90;;;;;;6163186;28;20026;-79
2021/09/08 02:03:22;;;;;;;15.20;10.45;;;14.60;99.90;;;;;;6179164;28;20066;-79
2021/09/08 02:06:25;;;;;;;14.73;10.18;;;14.60;99.90;;;;;;6179580;28;20019;-79
2021/09/08 02:09:25;;;;;;;;;;;14.70;99.90;;;;;;6179433;28;20042;-78
2021/09/08 02:12:26;;;;;;;13.52;9.80;;;14.80;99.90;;;;;;6178544;28;19953;-79
2021/09/08 02:15:26;;;;;;;12.27;9.85;;;14.60;99.90;;;;;;6178235;28;20018;-78
2021/09/08 02:18:27;;;;;;;15.80;10.88;;;14.60;99.90;;;;;;6196751;28;20034;-79
2021/09/08 02:21:27;;;;;;;11.98;10.30;;;14.70;99.90;;;;;;6178137;28;20368;-79
2021/09/08 02:24:28;;;;;;;14.48;10.00;;;14.30;99.90;;;;;;6162266;28;20038;-79
2021/09/08 02:27:29;;;;;;;11.27;9.38;;;14.40;99.90;;;;;;6196448;28;20061;-79
2021/09/08 02:30:29;;;;;;;11.10;9.35;;;14.40;99.90;;;;;;6178363;28;20038;-79
2021/09/08 02:33:30;;;;;;;12.27;9.57;;;14.60;99.90;;;;;;6178224;28;20045;-79
2021/09/08 02:36:30;;;;;;;11.57;9.20;;;14.40;99.90;;;;;;6177768;28;20113;-79
2021/09/08 02:39:31;;;;;;;11.43;10.05;;;14.40;99.90;;;;;;6178467;28;20034;-79
2021/09/08 02:42:31;;;;;;;14.27;9.82;;;14.30;99.90;;;;;;6161832;28;20057;-79
2021/09/08 02:45:32;;;;;;;12.90;9.65;;;14.40;99.90;;;;;;6195476;28;20022;-79
2021/09/08 02:48:33;;;;;;;14.35;10.07;;;14.70;99.90;;;;;;6178113;28;20037;-79
2021/09/08 02:51:34;;;;;;;11.35;8.90;;;14.50;99.90;;;;;;6161490;28;20050;-79
2021/09/08 02:54:35;;;;;;;12.68;10.50;;;14.40;99.90;;;;;;6178224;28;20022;-80
2021/09/08 02:57:35;;;;;;;12.50;9.80;;;14.40;99.90;;;;;;6195212;28;20037;-79
2021/09/08 03:00:36;;;;;;;11.57;9.88;;;14.40;99.90;;;;;;6177845;28;20036;-80
2021/09/08 03:03:37;;;;;;;11.00;9.32;;;14.30;99.90;;;;;;6177734;28;20057;-78
2021/09/08 03:06:37;;;;;;;10.32;9.13;;;14.60;99.90;;;;;;6161607;28;20093;-78
2021/09/08 03:09:38;;;;;;;12.88;10.18;;;14.00;99.90;;;;;;6161730;28;20044;-78
2021/09/08 03:12:39;;;;;;;15.90;10.80;;;14.30;99.90;;;;;;6177934;28;20048;-77
2021/09/08 03:15:39;;;;;;;13.70;9.25;;;14.50;99.90;;;;;;6177912;28;20456;-77
2021/09/08 03:18:40;;;;;;;10.65;9.55;;;14.40;99.90;;;;;;6160931;28;20038;-77
2021/09/08 03:21:40;;;;;;;11.85;9.88;;;14.30;99.90;;;;;;6195071;28;20373;-77
2021/09/08 03:24:41;;;;;;;12.07;9.73;;;14.40;99.90;;;;;;6177387;28;20034;-77
2021/09/08 03:27:41;;;;;;;11.32;9.63;;;14.40;99.90;;;;;;6195138;28;20022;-77
2021/09/08 03:30:42;;;;;;;12.77;10.63;;;14.40;99.90;;;;;;6177417;28;20038;-77
2021/09/08 03:33:43;;;;;;;12.80;10.40;;;14.40;99.90;;;;;;6177576;28;20042;-77
2021/09/08 03:36:43;;;;;;;12.60;10.30;;;14.40;99.90;;;;;;6176925;28;20054;-77
2021/09/08 03:39:44;;;;;;;12.25;10.10;;;14.30;99.90;;;;;;6177341;28;20441;-77
2021/09/08 03:42:44;;;;;;;11.90;9.93;;;14.30;99.90;;;;;;6194531;28;20030;-77
2021/09/08 03:45:45;;;;;;;12.80;10.68;;;14.20;99.90;;;;;;6176652;28;20031;-77
2021/09/08 03:48:46;;;;;;;13.30;10.40;;;14.10;99.90;;;;;;6177520;28;20439;-77
2021/09/08 03:51:46;;;;;;;12.45;9.55;;;14.40;99.90;;;;;;6176628;28;20038;-77
2021/09/08 03:54:47;;;;;;;12.73;10.02;;;14.40;99.90;;;;;;6176950;28;20445;-77
2021/09/08 03:57:47;;;;;;;11.10;9.25;;;13.80;99.90;;;;;;6194528;28;20039;-77
2021/09/08 04:00:48;;;;;;;12.90;10.45;;;;;;;;;;6176893;28;20026;-77
2021/09/08 04:03:49;;;;;;;22.38;10.40;;;13.80;99.90;;;;;;6194282;28;20105;-77
2021/09/08 04:06:50;;;;;;;12.35;10.10;;;;;;;;;;6176964;28;20049;-77
2021/09/08 04:09:51;;;;;;;14.40;9.73;;;14.00;99.90;;;;;;6194646;28;20097;-77
2021/09/08 04:12:52;;;;;;;15.00;10.68;;;;;;;;;;6176704;28;20038;-77
2021/09/08 04:15:53;;;;;;;16.77;10.55;;;13.70;99.90;;;;;;6194318;28;20030;-77
2021/09/08 04:18:53;;;;;;;14.13;11.25;;;13.90;99.90;;;;;;6193967;28;20051;-77
2021/09/08 04:21:54;;;;;;;13.10;10.77;;;13.90;99.90;;;;;;6194407;28;20101;-77
2021/09/08 04:24:54;;;;;;;13.00;10.65;;;13.90;99.90;;;;;;6194043;28;20030;-77
2021/09/08 04:27:55;;;;;;;15.55;10.95;;;13.90;99.90;;;;;;6194192;28;20516;-77
2021/09/08 04:30:56;;;;;;;14.48;10.57;;;13.90;99.90;;;;;;6193815;28;20033;-77
2021/09/08 04:33:56;;;;;;;13.30;10.88;;;13.80;99.90;;;;;;6193942;28;20031;-77
2021/09/08 04:36:57;;;;;;;16.27;11.68;;;13.80;99.90;;;;;;6176371;28;20516;-78
2021/09/08 04:39:57;;;;;;;15.15;11.23;;;13.60;99.90;;;;;;6179464;28;20041;-77
2021/09/08 04:42:58;;;;;;;15.55;11.63;;;13.70;99.90;;;;;;6181052;28;20030;-77
2021/09/08 04:45:59;;;;;;;15.45;11.50;;;13.80;99.90;;;;;;6181179;28;20034;-77
2021/09/08 04:48:59;;;;;;;15.77;10.73;;;13.80;99.90;;;;;;6180876;28;20532;-78
2021/09/08 04:52:00;;;;;;;14.45;10.95;;;13.90;99.90;;;;;;6180590;28;20132;-77
2021/09/08 04:55:01;;;;;;;12.05;10.43;;;13.80;99.90;;;;;;6180936;28;20049;-77
2021/09/08 04:58:02;;;;;;;12.57;10.52;;;13.70;99.90;;;;;;6165184;28;20072;-77
2021/09/08 05:01:02;;;;;;;12.70;11.25;;;13.80;99.90;;;;;;6180455;28;20040;-77
2021/09/08 05:04:03;;;;;;;15.32;11.55;;;13.60;99.90;;;;;;6180512;28;20034;-77
2021/09/08 05:07:04;;;;;;;13.45;10.85;;;13.40;99.90;;;;;;6198007;28;20038;-77
2021/09/08 05:10:05;;;;;;;16.38;11.75;;;13.50;99.90;;;;;;6180305;28;20026;-78
2021/09/08 05:13:05;;;;;;;14.45;11.30;;;13.50;99.90;;;;;;6197972;28;20357;-78
2021/09/08 05:16:09;;;;;;;14.77;11.07;;;13.50;99.90;;;;;;6164213;28;20058;-77
2021/09/08 05:19:10;;;;;;;12.82;10.70;;;13.50;99.90;;;;;;6163632;28;20093;-77
2021/09/08 05:22:10;;;;;;;12.93;10.73;;;13.70;99.90;;;;;;6180029;28;20023;-77
2021/09/08 05:25:11;;;;;;;13.43;10.93;;;13.60;99.90;;;;;;6197624;28;20030;-78
2021/09/08 05:28:12;;;;;;;15.43;10.82;;;13.80;99.90;;;;;;6164071;28;20484;-79
2021/09/08 05:31:12;;;;;;;12.52;10.80;;;13.60;99.90;;;;;;6179626;28;20034;-77
2021/09/08 05:34:13;;;;;;;12.93;10.63;;;13.50;99.90;;;;;;6180014;28;20615;-78
2021/09/08 05:37:13;;;;;;;13.63;11.25;;;13.60;99.90;;;;;;6197071;28;20210;-78
2021/09/08 05:40:14;;;;;;;12.80;10.38;;;14.40;99.90;;;;;;6196975;28;20038;-78
2021/09/08 05:43:15;;;;;;;14.27;10.82;;;14.30;99.90;;;;;;6179526;28;20026;-79
2021/09/08 05:46:16;;;;;;;12.90;9.95;;;15.00;99.90;;;;;;6196802;28;20089;-78
2021/09/08 05:49:16;;;;;;;11.20;9.48;;;16.10;99.90;;;;;;6179157;28;20349;-79
2021/09/08 05:52:17;;;;;;;11.88;9.55;;;16.70;99.90;;;;;;6178031;28;20091;-78
2021/09/08 05:55:17;;;;;;;12.18;9.95;;;16.70;99.90;;;;;;6179225;28;20030;-78
2021/09/08 05:58:18;;;;;;;11.07;9.73;;;16.80;99.90;;;;;;6163155;28;20129;-79
2021/09/08 06:01:18;;;;;;;13.73;9.57;;;17.00;99.90;;;;;;6179206;28;20215;-78
2021/09/08 06:04:19;;;;;;;14.77;10.45;;;17.60;99.90;;;;;;6196724;28;20022;-79
2021/09/08 06:07:20;;;;;;;10.77;9.30;;;17.60;99.90;;;;;;6196835;28;20093;-79
2021/09/08 06:10:21;;;;;;;11.15;10.00;;;17.90;99.90;;;;;;6163021;28;20050;-78
2021/09/08 06:13:21;;;;;;;13.73;9.68;;;18.40;99.90;;;;;;6178851;28;20041;-78
2021/09/08 06:16:22;;;;;;;11.32;9.18;;;18.50;99.90;;;;;;6178893;28;20030;-79
2021/09/08 06:19:23;;;;;;;11.68;9.88;;;19.10;99.90;;;;;;6196152;28;20034;-79
2021/09/08 06:22:23;;;;;;;10.43;9.15;;;19.20;99.90;;;;;;6162792;28;20061;-79
2021/09/08 06:25:24;;;;;;;12.48;10.27;;;19.30;99.90;;;;;;6162450;28;20445;-79
2021/09/08 06:28:25;;;;;;;13.02;9.82;;;19.70;99.90;;;;;;6196155;28;20824;-77
2021/09/08 06:31:25;;;;;;;13.55;9.23;;;20.00;99.90;;;;;;6162559;28;20026;-79
2021/09/08 06:34:26;;;;;;;13.38;9.77;;;20.00;99.90;;;;;;6178383;28;20041;-79
2021/09/08 06:37:26;;;;;;;11.60;9.90;;;20.40;99.60;;;;;;6196064;28;20058;-79
2021/09/08 06:40:27;;;;;;;15.05;10.60;;;20.60;98.40;;;;;;6161812;28;20038;-79
2021/09/08 06:43:27;;;;;;;11.90;9.25;;;21.20;97.80;;;;;;6162540;28;20033;-79
2021/09/08 06:46:28;;;;;;;11.60;9.68;;;21.40;97.00;;;;;;6177839;28;20026;-79
2021/09/08 06:49:29;;;;;;;11.30;10.05;;;21.90;96.30;;;;;;6161682;28;20471;-79
2021/09/08 06:52:29;;;;;;;14.68;9.63;;;22.20;96.20;;;;;;6177946;28;20065;-79
2021/09/08 06:55:30;;;;;;;11.95;9.75;;;22.60;95.00;;;;;;6161761;28;20034;-78
2021/09/08 06:58:30;;;;;;;11.27;9.32;;;23.10;93.10;;;;;;6161754;28;20026;-79
2021/09/08 07:01:31;;;;;;;13.00;9.30;;;23.60;99.50;;;;;;6177844;28;20596;-79
2021/09/08 07:04:32;;;;;;;10.15;8.82;;;23.60;92.10;;;;;;6161699;28;20026;-79
2021/09/08 07:07:32;;;;;;;10.45;8.93;;;24.40;99.90;;;;;;6177379;28;20505;-78
2021/09/08 07:10:33;;;;;;;22.02;9.25;;;24.70;99.90;;;;;;6177381;28;20038;-78
2021/09/08 07:13:34;;;;;;;14.00;8.60;;;24.80;99.90;;;;;;6177467;28;20046;-79
2021/09/08 07:16:34;;;;;;;8.93;7.97;;;25.30;96.10;;;;;;6177754;28;20045;-79
2021/09/08 07:19:35;;;;;;;11.02;9.07;;;25.20;87.20;;;;;;6195103;28;20030;-79
2021/09/08 07:22:36;;;;;;;9.90;8.20;;;;;;;;;;6176792;28;20026;-79
2021/09/08 07:25:36;;;;;;;9.00;8.13;;;25.80;99.90;;;;;;6194693;28;20037;-79
2021/09/08 07:28:38;;;;;;;10.83;8.63;;;;;;;;;;6161236;28;20053;-79
2021/09/08 07:31:39;;;;;;;;;;;25.90;90.30;;;;;;6195313;28;20026;-78
2021/09/08 07:34:40;;;;;;;10.30;8.50;;;;;;;;;;6177308;28;19916;-79
2021/09/08 07:37:41;;;;;;;8.83;7.73;;;26.60;92.80;;;;;;6177099;28;20054;-79
2021/09/08 07:40:42;;;;;;;10.47;7.80;;;;;;;;;;6176925;28;20412;-79
2021/09/08 07:43:43;;;;;;;10.52;8.60;;;;;;;;;;6177215;28;20034;-79
2021/09/08 07:46:44;;;;;;;21.20;9.23;;;;;;;;;;6176784;28;20495;-79
2021/09/08 07:49:44;;;;;;;19.87;8.43;;;27.10;85.80;;;;;;6194443;28;20030;-79
2021/09/08 07:52:45;;;;;;;11.20;8.30;;;27.30;85.70;;;;;;6194323;28;20539;-79
2021/09/08 07:55:46;;;;;;;9.80;8.37;;;27.80;73.20;;;;;;6160374;28;20022;-77
2021/09/08 07:58:46;;;;;;;12.10;8.27;;;28.00;73.40;;;;;;6176576;28;20054;-79
2021/09/08 08:01:47;;;;;;;10.03;8.33;;;28.50;73.10;;;;;;6177014;28;20029;-79
2021/09/08 08:04:47;;;;;;;13.90;8.10;;;29.00;71.70;;;;;;6176923;28;20022;-80
2021/09/08 08:07:48;;;;;;;10.87;8.00;;;29.10;69.10;;;;;;6176724;28;20023;-77
2021/09/08 08:10:49;;;;;;;12.03;7.90;;;29.60;67.50;;;;;;6177378;28;20539;-77
2021/09/08 08:13:49;;;;;;;12.57;8.10;;;30.00;66.10;;;;;;6177823;28;20376;-77
2021/09/08 08:16:51;;;;;;;20.80;8.37;;;30.20;64.10;;;;;;6181548;28;20117;-80
2021/09/08 08:19:52;;;;;;;9.07;7.13;;;30.20;64.50;;;;;;6181840;28;20030;-80
2021/09/08 08:22:52;;;;;;;17.17;8.47;;;30.30;62.80;;;;;;6198884;28;20077;-78
2021/09/08 08:25:53;;;;;;;8.85;6.03;;;30.50;62.10;;;;;;6165306;28;20036;-77
2021/09/08 08:28:54;;;;;;;7.43;6.00;;;30.60;60.50;;;;;;6198648;28;20457;-79
2021/09/08 08:31:54;;;;;;;11.00;6.70;;;30.60;60.20;;;;;;6199157;28;20046;-79
2021/09/08 08:34:55;;;;;;;17.20;6.90;;;30.50;59.20;;;;;;6198964;28;20073;-77
2021/09/08 08:37:55;;;;;;;14.90;6.67;;;30.60;58.40;;;;;;6180909;28;20518;-78
2021/09/08 08:40:56;;;;;;;10.03;6.47;;;30.60;58.30;;;;;;6180440;28;20034;-77
2021/09/08 08:43:57;;;;;;;14.47;7.40;;;30.70;60.10;;;;;;6148950;28;20504;-79
2021/09/08 08:46:57;;;;;;;7.63;6.80;;;30.80;59.60;;;;;;6180994;28;20034;-78
2021/09/08 08:49:58;;;;;;;7.70;6.90;;;30.90;58.70;;;;;;6180672;28;20096;-77
2021/09/08 08:52:58;;;;;;;10.60;8.40;;;30.80;59.60;;;;;;6164807;28;20527;-77
2021/09/08 08:55:59;;;;;;;8.87;7.90;;;31.00;60.40;;;;;;6198403;28;20106;-79
2021/09/08 08:59:00;;;;;;;10.40;8.27;;;30.90;59.00;;;;;;6181301;28;20152;-79
2021/09/08 09:02:21;;;;;;;9.50;7.63;;;31.00;59.30;;;;;;6180330;28;20031;-77
2021/09/08 09:05:35;;;;;;;9.65;7.82;;;31.00;58.90;;;;;;6180501;28;20030;-80
2021/09/08 09:08:36;;;;;;;11.80;7.93;;;31.00;58.70;;;;;;6179785;28;20033;-77
2021/09/08 09:11:37;;;;;;;8.77;7.90;;;30.90;59.60;;;;;;6164189;28;20034;-77
2021/09/08 09:14:39;;;;;;;7.90;6.93;;;31.10;59.20;;;;;;6164277;28;20030;-79
2021/09/08 09:17:40;;;;;;;10.13;7.30;;;30.10;56.60;;;;;;6197627;28;20076;-80
2021/09/08 09:20:43;;;;;;;9.15;8.25;;;31.20;59.40;;;;;;6163911;28;20030;-80
2021/09/08 09:23:48;;;;;;;10.98;7.30;;;31.30;58.30;;;;;;6180153;28;20039;-79
2021/09/08 09:26:49;;;;;;;11.32;8.25;;;31.40;58.50;;;;;;6163497;28;20026;-80
2021/09/08 09:29:49;;;;;;;10.65;7.38;;;31.50;57.30;;;;;;6163846;28;20093;-79
2021/09/08 09:32:51;;;;;;;10.23;9.00;;;31.80;57.20;;;;;;6163376;28;20104;-77
2021/09/08 09:35:52;;;;;;;10.85;8.13;;;31.60;58.50;;;;;;6180008;28;20273;-80
2021/09/08 09:38:53;;;;;;;15.10;8.60;;;31.50;58.30;;;;;;6179599;28;20209;-79
2021/09/08 09:41:57;;;;;;;9.75;8.27;;;31.50;59.20;;;;;;6163403;28;20416;-80
2021/09/08 09:45:06;;;;;;;10.15;8.30;;;31.30;58.50;;;;;;6163807;28;20433;-80
2021/09/08 09:48:06;;;;;;;8.68;7.80;;;31.60;58.40;;;;;;6163189;28;20038;-79
2021/09/08 09:51:11;;;;;;;11.93;8.10;;;31.70;57.60;;;;;;6179885;28;20030;-79
2021/09/08 09:54:15;;;;;;;11.35;8.00;;;31.60;58.00;;;;;;6163327;28;20067;-79
2021/09/08 09:57:15;;;;;;;9.80;7.72;;;31.90;58.60;;;;;;6163476;28;20033;-79
2021/09/08 10:00:17;;;;;;;9.43;7.57;;;31.90;58.40;;;;;;6163290;28;20520;-79
2021/09/08 10:03:19;;;;;;;8.75;7.85;;;31.90;58.60;;;;;;6179528;28;20027;-79
2021/09/08 10:06:20;;;;;;;11.95;7.22;;;31.80;57.10;;;;;;6197085;28;20027;-79
2021/09/08 10:09:21;;;;;;;11.25;8.43;;;31.80;58.90;;;;;;6179100;28;20064;-79
2021/09/08 10:12:23;;;;;;;14.93;7.95;;;31.80;58.70;;;;;;6146367;28;20121;-79
2021/09/08 10:15:24;;;;;;;16.30;7.97;;;31.80;58.80;;;;;;6178566;28;20225;-79
2021/09/08 10:18:26;;;;;;;11.13;7.03;;;31.80;58.10;;;;;;6162987;28;20030;-79
2021/09/08 10:21:27;;;;;;;12.60;7.95;;;31.80;59.00;;;;;;6178579;28;20041;-79
2021/09/08 10:24:28;;;;;;;17.50;8.07;;;31.80;59.00;;;;;;6179055;28;20457;-79
2021/09/08 10:27:29;;;;;;;;;;;31.70;58.90;;;;;;6146421;28;20045;-79
2021/09/08 10:30:30;;;;;;;8.07;7.15;;;32.30;84.70;;;;;;6178493;28;19906;-79
2021/09/08 10:33:30;;;;;;;9.50;8.43;;;32.30;83.80;;;;;;6162380;28;20041;-79
2021/09/08 10:36:32;;;;;;;20.98;9.60;;;32.40;84.20;;;;;;6161164;28;20100;-79
2021/09/08 10:39:32;;;;;;;8.77;7.88;;;32.50;84.30;;;;;;6162124;28;20380;-79
2021/09/08 10:42:46;;;;;;;9.48;8.07;;;32.50;65.10;;;;;;6161816;28;20037;-79
2021/09/08 10:45:51;;;;;;;11.20;8.23;;;32.00;85.20;;;;;;6180788;28;20392;-78
2021/09/08 10:48:52;;;;;;;9.90;8.02;;;32.10;67.30;;;;;;6162327;28;20456;-79
2021/09/08 10:51:52;;;;;;;15.63;8.18;;;32.40;85.00;;;;;;6195368;28;20038;-78
2021/09/08 10:54:56;;;;;;;10.05;7.80;;;31.90;67.40;;;;;;6178173;28;20038;-79
2021/09/08 10:57:58;;;;;;;14.60;8.50;;;32.30;58.50;;;;;;6195427;28;20042;-78
2021/09/08 11:00:59;;;;;;;12.80;7.65;;;32.20;59.10;;;;;;6161965;28;20058;-79
2021/09/08 11:03:59;;;;;;;47.15;9.90;;;32.20;58.70;;;;;;6180016;28;20032;-79
2021/09/08 11:07:02;;;;;;;9.00;7.45;;;31.90;59.30;;;;;;6177725;28;20037;-79
2021/09/08 11:10:03;;;;;;;9.27;8.00;;;31.90;59.40;;;;;;6146263;28;20457;-78
2021/09/08 11:13:03;;;;;;;8.20;7.40;;;31.80;59.10;;;;;;6161240;28;20047;-79
2021/09/08 11:16:15;;;;;;;8.40;7.43;;;31.80;59.90;;;;;;6161234;28;20022;-78
2021/09/08 11:19:16;;;;;;;10.52;7.70;;;31.80;59.10;;;;;;6177610;28;20027;-78
2021/09/08 11:22:17;;;;;;;9.10;7.38;;;32.00;59.80;;;;;;6161145;28;20030;-78
2021/09/08 11:25:17;;;;;;;8.20;7.40;;;32.00;59.40;;;;;;6177755;28;20023;-78
2021/09/08 11:28:18;;;;;;;12.95;7.88;;;31.80;60.60;;;;;;6195382;28;20030;-78
2021/09/08 11:31:19;;;;;;;9.25;7.88;;;31.70;60.30;;;;;;6195037;28;20125;-77
2021/09/08 11:34:20;;;;;;;9.15;7.82;;;31.60;60.80;;;;;;6160892;28;20034;-78
2021/09/08 11:37:21;;;;;;;9.55;7.57;;;31.50;62.00;;;;;;6176724;28;20085;-78
2021/09/08 11:40:22;;;;;;;9.15;7.90;;;31.60;61.20;;;;;;6176604;28;20445;-78
2021/09/08 11:43:42;;;;;;;11.90;7.80;;;31.60;61.70;;;;;;6194496;28;20030;-78
2021/09/08 11:46:43;;;;;;;9.53;7.93;;;31.60;60.40;;;;;;6161074;28;20034;-78
2021/09/08 11:49:44;;;;;;;8.20;7.40;;;31.60;60.20;;;;;;6194088;28;20301;-78
2021/09/08 11:52:45;;;;;;;10.07;7.93;;;31.40;61.10;;;;;;6161122;28;20293;-78
2021/09/08 11:55:46;;;;;;;11.05;8.15;;;31.30;61.40;;;;;;6177021;28;20064;-78
2021/09/08 11:58:57;;;;;;;17.00;7.40;;;31.30;61.80;;;;;;6177270;28;20053;-78
2021/09/08 12:01:58;;;;;;;11.30;7.25;;;31.30;61.30;;;;;;6161437;28;20281;-78
2021/09/08 12:04:58;;;;;;;12.70;8.25;;;31.10;61.30;;;;;;6144732;28;20130;-79
2021/09/08 12:07:59;;;;;;;10.37;8.03;;;30.90;62.20;;;;;;6160733;28;20034;-78
2021/09/08 12:11:00;;;;;;;11.15;8.05;;;30.80;61.70;;;;;;6176981;28;20117;-78
2021/09/08 12:14:19;;;;;;;9.93;7.70;;;30.40;77.30;;;;;;6192749;28;20050;-79
2021/09/08 12:17:26;;;;;;;12.98;7.35;;;30.50;62.10;;;;;;6194561;28;20058;-77
2021/09/08 12:20:27;;;;;;;10.07;7.47;;;30.40;62.80;;;;;;6145559;28;20037;-78
2021/09/08 12:23:30;;;;;;;11.10;8.40;;;30.20;89.60;;;;;;6194517;28;20453;-77
2021/09/08 12:26:40;;;;;;;18.45;8.63;;;30.50;81.70;;;;;;6144476;28;20277;-78
2021/09/08 12:29:46;;;;;;;18.95;8.43;;;30.10;88.60;;;;;;6176687;28;20034;-77
2021/09/08 12:32:47;;;;;;;12.85;7.85;;;;;;;;;;6193876;28;20038;-77
2021/09/08 12:35:52;;;;;;;13.80;8.80;;;30.00;72.30;;;;;;6194056;28;20365;-77
2021/09/08 12:38:53;;;;;;;14.50;8.65;;;30.30;73.70;;;;;;6194099;28;20137;-77
2021/09/08 12:41:58;;;;;;;27.60;8.93;;;30.10;63.70;;;;;;6176136;28;20408;-77
2021/09/08 12:45:06;;;;;;;12.15;8.00;;;30.10;63.70;;;;;;6193892;28;20026;-77
2021/09/08 12:48:07;;;;;;;9.13;7.65;;;30.00;65.70;;;;;;6160483;28;20598;-77
2021/09/08 12:51:07;;;;;;;12.17;8.60;;;30.00;64.30;;;;;;6194203;28;20034;-77
2021/09/08 12:54:11;;;;;;;9.82;8.32;;;30.00;65.80;;;;;;6160322;28;20082;-77
2021/09/08 12:57:12;;;;;;;9.10;8.10;;;30.00;64.00;;;;;;6176858;28;20073;-77
2021/09/08 13:00:13;;;;;;;7.95;7.13;;;30.00;64.80;;;;;;6178219;28;20384;-77
2021/09/08 13:03:14;;;;;;;8.90;8.02;;;30.00;65.40;;;;;;6163989;28;20037;-77
2021/09/08 13:06:15;;;;;;;8.45;7.65;;;30.00;65.50;;;;;;6198253;28;20037;-77
2021/09/08 13:09:16;;;;;;;9.30;8.20;;;30.00;66.00;;;;;;6180237;28;21026;-77
2021/09/08 13:12:16;;;;;;;12.85;8.23;;;30.00;64.90;;;;;;6180247;28;20304;-77
2021/09/08 13:15:17;;;;;;;9.57;7.80;;;29.90;79.80;;;;;;6180305;28;20121;-77
2021/09/08 13:18:17;;;;;;;9.65;7.93;;;29.90;65.10;;;;;;6180810;28;20258;-78
2021/09/08 13:21:18;;;;;;;10.20;7.07;;;29.90;66.30;;;;;;6197734;28;20038;-78
2021/09/08 13:24:19;;;;;;;22.37;8.57;;;30.00;66.40;;;;;;6197747;28;20109;-77
2021/09/08 13:27:22;;;;;;;21.73;9.07;;;30.00;67.10;;;;;;6197770;28;20065;-79
2021/09/08 13:30:23;;;;;;;14.32;8.07;;;30.00;65.20;;;;;;6180497;28;20034;-77
2021/09/08 13:33:23;;;;;;;10.05;8.05;;;30.00;65.60;;;;;;6179922;28;20136;-77
2021/09/08 13:36:24;;;;;;;9.27;7.83;;;30.00;67.60;;;;;;6197343;28;20045;-77
2021/09/08 13:39:24;;;;;;;8.57;7.67;;;30.00;65.90;;;;;;6164108;28;20049;-76
2021/09/08 13:42:25;;;;;;;10.20;8.30;;;30.00;66.60;;;;;;6196925;28;20039;-79
2021/09/08 13:45:26;;;;;;;9.02;7.82;;;30.00;67.90;;;;;;6163705;28;20034;-77
2021/09/08 13:48:27;;;;;;;8.57;7.70;;;29.90;67.70;;;;;;6163427;28;20045;-77
2021/09/08 13:51:27;;;;;;;8.87;7.73;;;29.90;67.40;;;;;;6196709;28;20101;-77
2021/09/08 13:54:28;;;;;;;9.03;8.13;;;29.80;67.30;;;;;;6196835;28;20053;-77
2021/09/08 13:57:29;;;;;;;9.90;8.47;;;29.90;67.70;;;;;;6179338;28;20029;-77
2021/09/08 14:00:29;;;;;;;9.60;7.93;;;29.90;66.80;;;;;;6197003;28;20122;-77
2021/09/08 14:03:30;;;;;;;10.23;8.10;;;29.80;68.10;;;;;;6197053;28;20076;-77
2021/09/08 14:06:31;;;;;;;8.30;7.50;;;29.80;68.30;;;;;;6162654;28;20563;-77
2021/09/08 14:09:31;;;;;;;9.50;7.93;;;29.80;67.70;;;;;;6179028;28;20038;-77
2021/09/08 14:12:32;;;;;;;9.20;8.27;;;29.80;67.80;;;;;;6178161;28;20503;-76
2021/09/08 14:15:32;;;;;;;9.70;8.67;;;29.70;67.30;;;;;;6196697;28;20365;-77
2021/09/08 14:18:33;;;;;;;9.43;8.47;;;29.80;67.00;;;;;;6162644;28;20658;-76
2021/09/08 14:21:34;;;;;;;9.00;8.20;;;29.70;65.50;;;;;;6162448;28;20042;-79
2021/09/08 14:24:34;;;;;;;9.20;8.17;;;29.50;65.90;;;;;;6163178;28;20034;-77
2021/09/08 14:27:35;;;;;;;21.07;8.63;;;29.70;66.70;;;;;;6178453;28;20077;-76
2021/09/08 14:30:36;;;;;;;9.13;7.03;;;29.70;67.90;;;;;;6196045;28;20254;-77
2021/09/08 14:33:37;;;;;;;12.80;8.05;;;29.70;68.40;;;;;;6196181;28;20046;-77
2021/09/08 14:36:37;;;;;;;11.70;7.37;;;29.70;68.30;;;;;;6178226;28;20057;-77
2021/09/08 14:39:38;;;;;;;8.50;7.70;;;29.60;67.50;;;;;;6177635;28;20034;-76
2021/09/08 14:42:40;;;;;;;11.23;7.50;;;29.60;68.90;;;;;;6177929;28;20315;-76
2021/09/08 14:45:44;;;;;;;10.95;7.53;;;29.60;68.40;;;;;;6195761;28;20022;-76
2021/09/08 14:48:45;;;;;;;33.03;9.13;;;29.50;67.70;;;;;;6162523;28;20376;-77
2021/09/08 14:51:46;;;;;;;104.67;16.93;;;29.30;68.20;;;;;;6195454;28;20034;-79
2021/09/08 14:54:46;;;;;;;89.30;11.13;;;29.30;68.60;;;;;;6161874;28;20097;-77
2021/09/08 14:57:47;;;;;;;10.90;7.93;;;29.30;68.80;;;;;;6177680;28;20027;-77
2021/09/08 15:00:47;;;;;;;34.80;9.23;;;29.20;70.00;;;;;;6195377;28;20040;-78
2021/09/08 15:03:48;;;;;;;53.87;10.93;;;29.10;69.90;;;;;;6195134;28;20265;-79
2021/09/08 15:06:50;;;;;;;35.47;9.40;;;29.10;68.90;;;;;;6161474;28;20101;-78
2021/09/08 15:09:50;;;;;;;12.00;8.18;;;29.10;68.90;;;;;;6161629;28;20026;-78
2021/09/08 15:12:53;;;;;;;64.33;11.50;;;29.10;69.30;;;;;;6195155;28;20041;-78
2021/09/08 15:15:53;;;;;;;8.88;7.80;;;29.10;71.00;;;;;;6161765;28;20281;-78
2021/09/08 15:18:54;;;;;;;8.80;8.00;;;29.00;70.80;;;;;;6177283;28;20948;-78
2021/09/08 15:21:55;;;;;;;9.07;7.77;;;28.90;70.60;;;;;;6194928;28;20037;-78
2021/09/08 15:24:55;;;;;;;9.47;7.90;;;28.70;85.80;;;;;;6177195;28;20486;-79
2021/09/08 15:27:56;;;;;;;11.67;7.97;;;28.70;93.70;;;;;;6194928;28;20082;-79
2021/09/08 15:30:57;;;;;;;10.93;7.73;;;28.80;71.00;;;;;;6195035;28;20037;-79
2021/09/08 15:33:58;;;;;;;8.32;7.55;;;28.90;93.80;;;;;;6177221;28;20113;-79
2021/09/08 15:36:58;;;;;;;9.70;7.60;;;28.60;94.00;;;;;;6194545;28;20057;-78
2021/09/08 15:39:59;;;;;;;10.57;8.37;;;28.70;93.80;;;;;;6176651;28;20492;-79